Terminal Aerodrome Forecast
Issued by NWS Flagstaff, AZ

Home | Current Version | Previous Version | Text Only | Print | Product List | Glossary On
Versions: 1 2 3 4 5 6 7 8 9 10 11 12 13 14 15 16 17 18 19 20 21 22
000
FTUS45 KFGZ 251732
TAFFLG
TAF
KFLG 251732Z 2518/2618 27011G19KT P6SM VCSH SCT035 BKN040 BKN080
      TEMPO 2518/2522 5SM -SHRA BKN035 OVC080
     FM260200 VRB03KT P6SM SCT020 SCT060=

USA.gov is the U.S. government's official web portal to all federal, state and local government web resources and services.